Time;durP1;ratioP1;P1;durP2;ratioP2;P2;SDS_P1;SDS_P2;PMS_P1;PMS_P2;Temp;Humidity;BMP_temperature;BMP_pressure;BME280_temperature;BME280_humidity;BME280_pressure;Samples;Min_cycle;Max_cycle;Signal;HPM_P1;HPM_P2
2022/12/29 00:01:08;;;;;;;145.60;95.95;;;;;;;;;;5088278;28;20054;-78
2022/12/29 00:03:33;;;;;;;161.88;113.90;;;;;;;;;;5082723;28;20036;-78
2022/12/29 00:05:59;;;;;;;164.55;115.22;;;;;;;;;;5081192;28;20038;-78
2022/12/29 00:08:39;;;;;;;174.75;124.25;;;;;;;;;;5089302;28;20031;-78
2022/12/29 00:11:04;;;;;;;;;;;;;;;;;;5088292;28;20442;-78
2022/12/29 00:16:13;;;;;;;161.98;114.05;;;;;;;;;;5078980;28;20070;-77
2022/12/29 00:18:38;;;;;;;140.73;99.57;;;;;;;;;;5057960;28;20047;-76
2022/12/29 00:44:04;;;;;;;183.30;128.93;;;;;;;;;;5089805;28;20106;-78
2022/12/29 00:45:41;;;;;;;174.77;125.95;;;;;;;;;;5084800;28;20027;-80
2022/12/29 00:48:06;;;;;;;198.48;138.98;;;;;;;;;;5079895;28;20039;-78
2022/12/29 00:50:31;;;;;;;229.90;160.27;;;;;;;;;;5081203;28;20028;-78
2022/12/29 00:52:57;;;;;;;202.80;141.88;;;;;;;;;;5077200;28;20024;-78
2022/12/29 00:55:22;;;;;;;188.07;130.20;;;;;;;;;;5095237;28;20047;-78
2022/12/29 00:57:47;;;;;;;184.70;132.15;;;;;;;;;;5076916;28;20139;-78
2022/12/29 01:00:13;;;;;;;200.68;140.32;;;;;;;;;;5096413;28;20423;-79
2022/12/29 01:02:38;;;;;;;163.75;114.38;;;;;;;;;;5093616;28;20432;-78
2022/12/29 01:05:03;;;;;;;151.63;106.13;;;;;;;;;;5095633;28;20424;-78
2022/12/29 01:07:29;;;;;;;153.60;107.88;;;;;;;;;;5085726;28;20027;-77
2022/12/29 01:10:14;;;;;;;140.13;97.28;;;;;;;;;;5080412;28;20040;-78
2022/12/29 01:12:44;;;;;;;117.03;82.55;;;;;;;;;;5086799;28;20371;-77
2022/12/29 01:15:13;;;;;;;95.53;65.93;;;;;;;;;;5081674;28;20042;-77
2022/12/29 01:17:39;;;;;;;97.32;67.57;;;;;;;;;;5073202;28;20031;-76
2022/12/29 01:20:04;;;;;;;81.60;56.40;;;;;;;;;;5095236;28;20036;-77
2022/12/29 01:22:29;;;;;;;80.60;55.50;;;;;;;;;;5070128;28;20643;-76
2022/12/29 01:24:55;;;;;;;93.82;73.55;;;;;;;;;;5081889;28;20136;-76
2022/12/29 01:27:20;;;;;;;115.30;86.07;;;;;;;;;;5093829;28;20115;-77
2022/12/29 01:29:45;;;;;;;121.03;87.75;;;;;;;;;;5093786;28;20035;-78
2022/12/29 01:32:11;;;;;;;150.02;102.57;;;;;;;;;;5092506;28;20072;-78
2022/12/29 01:34:36;;;;;;;261.67;184.82;;;;;;;;;;5088995;28;20457;-78
2022/12/29 01:37:01;;;;;;;154.55;108.80;;;;;;;;;;5066903;28;20042;-79
2022/12/29 01:39:26;;;;;;;168.43;118.65;;;;;;;;;;5093666;28;20081;-78
2022/12/29 01:41:52;;;;;;;172.40;121.95;;;;;;;;;;5095533;28;20478;-79
2022/12/29 01:44:36;;;;;;;167.02;117.13;;;;;;;;;;5076189;28;20042;-77
2022/12/29 01:47:01;;;;;;;166.80;113.60;;;;;;;;;;5089348;28;20028;-77
2022/12/29 01:49:27;;;;;;;160.63;112.47;;;;;;;;;;5093443;28;20387;-76
2022/12/29 01:52:01;;;;;;;173.60;116.65;;;;;;;;;;5094320;28;20055;-77
2022/12/29 01:54:26;;;;;;;162.82;108.75;;;;;;;;;;5098622;28;20024;-78
2022/12/29 01:56:53;;;;;;;122.30;88.53;;;;;;;;;;5092320;28;20043;-79
2022/12/29 01:59:22;;;;;;;107.95;78.03;;;;;;;;;;5079120;28;20112;-76
2022/12/29 02:01:47;;;;;;;108.22;80.57;;;;;;;;;;5089720;28;20016;-77
2022/12/29 02:04:13;;;;;;;122.75;89.72;;;;;;;;;;5088202;28;20052;-79
2022/12/29 02:06:43;;;;;;;142.93;102.75;;;;;;;;;;5085417;28;20019;-79
2022/12/29 02:09:09;;;;;;;118.10;82.53;;;;;;;;;;5092251;28;20032;-76
2022/12/29 02:11:34;;;;;;;70.05;49.03;;;;;;;;;;5088504;28;20044;-78
2022/12/29 02:14:00;;;;;;;69.45;48.88;;;;;;;;;;5078743;28;20991;-77
2022/12/29 02:16:37;;;;;;;63.47;45.95;;;;;;;;;;5084429;28;20028;-78
2022/12/29 02:19:02;;;;;;;48.83;34.47;;;;;;;;;;5086274;28;20035;-79
2022/12/29 02:21:46;;;;;;;39.13;26.83;;;;;;;;;;5084556;28;20102;-80
2022/12/29 02:24:12;;;;;;;59.95;41.90;;;;;;;;;;5090657;28;20038;-80
2022/12/29 02:26:37;;;;;;;81.63;56.33;;;;;;;;;;5093483;28;20020;-78
2022/12/29 02:29:11;;;;;;;53.92;37.85;;;;;;;;;;5081186;28;20424;-79
2022/12/29 02:31:39;;;;;;;35.65;27.67;;;;;;;;;;5087573;28;20439;-79
2022/12/29 02:34:20;;;;;;;35.97;28.17;;;;;;;;;;5094677;28;20040;-79
2022/12/29 02:36:55;;;;;;;42.30;32.17;;;;;;;;;;5093480;28;20106;-79
2022/12/29 02:39:27;;;;;;;51.75;37.53;;;;;;;;;;5096198;28;20427;-79
2022/12/29 02:41:52;;;;;;;62.50;47.55;;;;;;;;;;5095755;28;20023;-77
2022/12/29 02:44:31;;;;;;;60.42;45.63;;;;;;;;;;5070179;28;20080;-80
2022/12/29 02:47:00;;;;;;;61.25;45.05;;;;;;;;;;5080778;28;20077;-78
2022/12/29 02:49:32;;;;;;;57.55;41.00;;;;;;;;;;5088943;28;20032;-79
2022/12/29 02:52:00;;;;;;;45.00;34.28;;;;;;;;;;5086358;28;20020;-79
2022/12/29 02:54:41;;;;;;;48.22;35.03;;;;;;;;;;5070840;28;20408;-81
2022/12/29 02:57:15;;;;;;;34.38;27.85;;;;;;;;;;5089020;28;20023;-77
2022/12/29 02:59:42;;;;;;;43.65;33.53;;;;;;;;;;5092158;28;20058;-79
2022/12/29 03:02:16;;;;;;;226.65;156.93;;;;;;;;;;5072948;28;20118;-78
2022/12/29 03:04:50;;;;;;;125.88;89.55;;;;;;;;;;5077395;28;20023;-78
2022/12/29 03:07:22;;;;;;;96.40;68.88;;;;;;;;;;5092130;28;20024;-77
2022/12/29 03:10:01;;;;;;;85.18;61.38;;;;;;;;;;5080811;28;20553;-75
2022/12/29 03:18:06;;;;;;;77.72;52.83;;;;;;;;;;5086412;28;20121;-79
2022/12/29 03:20:33;;;;;;;68.85;50.50;;;;;;;;;;5076876;28;20024;-80
2022/12/29 03:23:00;;;;;;;68.00;51.55;;;;;;;;;;5092517;28;20023;-77
2022/12/29 03:25:30;;;;;;;55.40;41.80;;;;;;;;;;5095911;28;20491;-78
2022/12/29 03:27:58;;;;;;;48.80;35.22;;;;;;;;;;5091295;28;20115;-77
2022/12/29 03:30:24;;;;;;;54.67;40.88;;;;;;;;;;5090153;28;20084;-76
2022/12/29 03:32:54;;;;;;;91.25;63.47;;;;;;;;;;5078073;28;20032;-77
2022/12/29 03:35:21;;;;;;;105.18;71.32;;;;;;;;;;5082210;28;20031;-76
2022/12/29 03:37:55;;;;;;;83.13;55.97;;;;;;;;;;5077359;28;20522;-78
2022/12/29 03:40:21;;;;;;;116.53;76.70;;;;;;;;;;5089410;28;20027;-77
2022/12/29 03:42:46;;;;;;;75.95;53.65;;;;;;;;;;5087649;28;20015;-80
2022/12/29 03:45:12;;;;;;;68.00;48.90;;;;;;;;;;5081772;28;20050;-79
2022/12/29 03:47:37;;;;;;;83.35;57.08;;;;;;;;;;5091007;28;20066;-79
2022/12/29 03:50:02;;;;;;;74.18;52.13;;;;;;;;;;5093292;28;20065;-79
2022/12/29 03:52:28;;;;;;;70.43;49.50;;;;;;;;;;5092918;28;20034;-79
2022/12/29 03:54:53;;;;;;;65.18;48.60;;;;;;;;;;5090755;28;20015;-78
2022/12/29 03:57:18;;;;;;;60.00;43.80;;;;;;;;;;5090421;28;20060;-79
2022/12/29 03:59:44;;;;;;;71.78;51.83;;;;;;;;;;5092622;28;20027;-80
2022/12/29 04:02:09;;;;;;;64.80;48.85;;;;;;;;;;5090415;28;20035;-80
2022/12/29 04:04:34;;;;;;;65.05;47.28;;;;;;;;;;5091603;28;20028;-77
2022/12/29 04:06:59;;;;;;;54.10;41.25;;;;;;;;;;5083591;28;20346;-78
2022/12/29 04:09:25;;;;;;;67.65;51.97;;;;;;;;;;5088925;28;20024;-78
2022/12/29 04:11:50;;;;;;;56.15;45.33;;;;;;;;;;5091515;28;20134;-78
2022/12/29 04:14:15;;;;;;;62.70;49.60;;;;;;;;;;5089505;28;20027;-79
2022/12/29 04:16:41;;;;;;;47.72;37.63;;;;;;;;;;5082446;28;20042;-79
2022/12/29 04:19:07;;;;;;;46.92;35.92;;;;;;;;;;5091828;28;20028;-80
2022/12/29 04:21:32;;;;;;;44.38;34.13;;;;;;;;;;5090830;28;20022;-79
2022/12/29 04:23:58;;;;;;;39.95;31.20;;;;;;;;;;5087158;28;20023;-78
2022/12/29 04:26:23;;;;;;;29.50;25.90;;;;;;;;;;5089709;28;20135;-78
2022/12/29 04:28:48;;;;;;;36.42;26.90;;;;;;;;;;5081397;28;20395;-79
2022/12/29 04:31:14;;;;;;;37.83;29.33;;;;;;;;;;5088563;28;20038;-78
2022/12/29 04:33:39;;;;;;;45.10;35.65;;;;;;;;;;5093806;28;20077;-78
2022/12/29 04:36:04;;;;;;;32.90;25.25;;;;;;;;;;5097106;28;20032;-79
2022/12/29 04:38:30;;;;;;;33.55;25.05;;;;;;;;;;5096275;28;20024;-80
2022/12/29 04:40:58;;;;;;;27.35;21.45;;;;;;;;;;5097306;28;20019;-79
2022/12/29 04:43:23;;;;;;;32.08;25.05;;;;;;;;;;5082150;28;20439;-78
2022/12/29 04:45:49;;;;;;;29.60;24.38;;;;;;;;;;5087644;28;20031;-79
2022/12/29 04:48:14;;;;;;;37.60;28.48;;;;;;;;;;5086775;28;20028;-76
2022/12/29 04:50:40;;;;;;;46.72;37.42;;;;;;;;;;5075080;28;20035;-78
2022/12/29 04:53:05;;;;;;;58.00;43.42;;;;;;;;;;5074023;28;20024;-78
2022/12/29 04:55:31;;;;;;;72.60;53.28;;;;;;;;;;5057459;28;20039;-79
2022/12/29 04:57:56;;;;;;;75.05;53.95;;;;;;;;;;5072384;28;20040;-78
2022/12/29 05:00:21;;;;;;;88.50;63.65;;;;;;;;;;5077410;28;20030;-81
2022/12/29 05:02:47;;;;;;;83.10;61.58;;;;;;;;;;5081911;28;20106;-80
2022/12/29 05:05:12;;;;;;;81.75;58.95;;;;;;;;;;5092907;28;20063;-78
2022/12/29 05:07:37;;;;;;;63.58;45.88;;;;;;;;;;5092568;28;20061;-80
2022/12/29 05:10:03;;;;;;;61.63;45.70;;;;;;;;;;5092725;28;20432;-79
2022/12/29 05:12:32;;;;;;;70.53;51.60;;;;;;;;;;5092656;28;20023;-77
2022/12/29 05:14:57;;;;;;;107.72;84.40;;;;;;;;;;5095126;28;20024;-77
2022/12/29 05:20:25;;;;;;;98.80;75.32;;;;;;;;;;5077193;28;20033;-77
2022/12/29 05:22:50;;;;;;;103.13;81.38;;;;;;;;;;5090267;28;20057;-80
2022/12/29 05:25:15;;;;;;;64.30;51.22;;;;;;;;;;5093900;28;20039;-77
2022/12/29 05:27:41;;;;;;;41.35;33.20;;;;;;;;;;5093344;28;20084;-77
2022/12/29 05:30:06;;;;;;;32.63;27.58;;;;;;;;;;5079485;28;20024;-77
2022/12/29 05:32:32;;;;;;;32.38;27.33;;;;;;;;;;5086475;28;20024;-78
2022/12/29 05:34:57;;;;;;;41.42;34.30;;;;;;;;;;5094550;28;20047;-76
2022/12/29 05:37:22;;;;;;;30.45;26.45;;;;;;;;;;5091996;28;20030;-77
2022/12/29 05:39:48;;;;;;;52.38;42.95;;;;;;;;;;5095314;28;20020;-75
2022/12/29 05:42:13;;;;;;;54.78;44.88;;;;;;;;;;5093169;28;20043;-77
2022/12/29 05:44:38;;;;;;;105.03;77.05;;;;;;;;;;5092534;28;20114;-76
2022/12/29 05:47:03;;;;;;;85.82;62.97;;;;;;;;;;5089551;28;20040;-75
2022/12/29 05:49:29;;;;;;;69.78;50.33;;;;;;;;;;5086517;28;20450;-77
2022/12/29 05:54:57;;;;;;;73.00;49.97;;;;;;;;;;5089009;28;20170;-79
2022/12/29 05:57:22;;;;;;;73.32;55.35;;;;;;;;;;5081679;28;20107;-75
2022/12/29 05:59:47;;;;;;;61.90;44.78;;;;;;;;;;5096313;28;20058;-76
2022/12/29 06:02:13;;;;;;;94.03;63.83;;;;;;;;;;5094999;28;20027;-77
2022/12/29 06:04:38;;;;;;;102.78;75.47;;;;;;;;;;5091082;28;20555;-78
2022/12/29 06:07:03;;;;;;;102.68;73.35;;;;;;;;;;5094575;28;20044;-78
2022/12/29 06:09:29;;;;;;;102.22;75.93;;;;;;;;;;5088828;28;20106;-78
2022/12/29 06:11:54;;;;;;;100.93;77.20;;;;;;;;;;5093366;28;20036;-79
2022/12/29 06:14:20;;;;;;;94.60;71.07;;;;;;;;;;5096709;28;20500;-77
2022/12/29 06:16:45;;;;;;;100.22;75.38;;;;;;;;;;5088612;28;20427;-79
2022/12/29 06:19:10;;;;;;;71.95;58.60;;;;;;;;;;5095215;28;20427;-78
2022/12/29 06:21:37;;;;;;;64.07;54.15;;;;;;;;;;5096030;28;20316;-79
2022/12/29 06:24:02;;;;;;;474.40;327.08;;;;;;;;;;5093821;28;20062;-78
2022/12/29 06:26:27;;;;;;;265.38;183.40;;;;;;;;;;5090972;28;20094;-78
2022/12/29 06:28:53;;;;;;;140.18;112.28;;;;;;;;;;5085867;28;20062;-79
2022/12/29 06:31:18;;;;;;;119.88;96.43;;;;;;;;;;5083965;28;20366;-77
2022/12/29 06:33:43;;;;;;;126.20;104.75;;;;;;;;;;5082324;28;20136;-79
2022/12/29 06:36:08;;;;;;;116.20;97.90;;;;;;;;;;5091416;28;20031;-79
2022/12/29 06:38:35;;;;;;;114.50;97.85;;;;;;;;;;5087875;28;20189;-80
2022/12/29 06:41:00;;;;;;;155.15;127.60;;;;;;;;;;5095266;28;20024;-79
2022/12/29 06:43:25;;;;;;;227.85;165.90;;;;;;;;;;5085652;28;20351;-78
2022/12/29 06:45:50;;;;;;;402.15;260.38;;;;;;;;;;5091905;28;20185;-81
2022/12/29 06:48:16;;;;;;;368.88;249.13;;;;;;;;;;5092491;28;20110;-80
2022/12/29 06:50:41;;;;;;;347.73;228.05;;;;;;;;;;5085011;28;20027;-78
2022/12/29 06:53:06;;;;;;;448.35;285.77;;;;;;;;;;5091866;28;20077;-78
2022/12/29 06:55:32;;;;;;;612.63;440.38;;;;;;;;;;5091048;28;20103;-78
2022/12/29 06:57:57;;;;;;;366.45;245.40;;;;;;;;;;5094174;28;20314;-78
2022/12/29 07:00:23;;;;;;;205.55;148.13;;;;;;;;;;5093125;28;20051;-80
2022/12/29 07:02:48;;;;;;;134.18;93.07;;;;;;;;;;5096197;28;20030;-78
2022/12/29 07:05:14;;;;;;;90.10;67.95;;;;;;;;;;5092460;28;20039;-79
2022/12/29 07:07:39;;;;;;;139.18;106.95;;;;;;;;;;5094052;28;20121;-80
2022/12/29 07:10:04;;;;;;;138.90;104.93;;;;;;;;;;5093859;28;20428;-81
2022/12/29 07:12:30;;;;;;;138.77;103.55;;;;;;;;;;5095970;28;20039;-81
2022/12/29 07:14:55;;;;;;;121.38;96.03;;;;;;;;;;5093053;28;20027;-79
2022/12/29 07:17:20;;;;;;;137.57;105.47;;;;;;;;;;5093152;28;20035;-78
2022/12/29 07:19:46;;;;;;;145.90;113.80;;;;;;;;;;5093336;28;20023;-80
2022/12/29 07:22:11;;;;;;;237.20;164.88;;;;;;;;;;5090224;28;20019;-80
2022/12/29 07:24:36;;;;;;;638.10;370.33;;;;;;;;;;5092828;28;20151;-78
2022/12/29 07:27:02;;;;;;;324.23;206.93;;;;;;;;;;5092367;28;20032;-78
2022/12/29 07:29:27;;;;;;;200.10;145.00;;;;;;;;;;5092243;28;20027;-78
2022/12/29 07:31:52;;;;;;;249.95;176.70;;;;;;;;;;5095264;28;20034;-78
2022/12/29 07:34:17;;;;;;;240.57;185.02;;;;;;;;;;5093471;28;20065;-79
2022/12/29 07:36:43;;;;;;;183.50;151.45;;;;;;;;;;5094950;28;20359;-79
2022/12/29 07:39:08;;;;;;;291.52;215.65;;;;;;;;;;5093343;28;20031;-77
2022/12/29 07:41:34;;;;;;;201.57;159.68;;;;;;;;;;5092093;28;20057;-78
2022/12/29 07:43:59;;;;;;;284.73;214.20;;;;;;;;;;5090844;28;20032;-77
2022/12/29 07:46:25;;;;;;;199.75;150.80;;;;;;;;;;5077297;28;20039;-77
2022/12/29 07:48:50;;;;;;;172.82;136.93;;;;;;;;;;5076754;28;20624;-76
2022/12/29 07:51:15;;;;;;;150.32;122.30;;;;;;;;;;5063598;28;20080;-76
2022/12/29 07:53:41;;;;;;;164.10;132.45;;;;;;;;;;5079733;28;20032;-77
2022/12/29 07:56:06;;;;;;;180.98;144.45;;;;;;;;;;5080642;28;20034;-77
2022/12/29 07:58:31;;;;;;;174.10;132.75;;;;;;;;;;5079743;28;20044;-77
2022/12/29 08:00:57;;;;;;;221.88;159.95;;;;;;;;;;5081699;28;20054;-78
2022/12/29 08:03:23;;;;;;;185.05;141.00;;;;;;;;;;5082621;28;20015;-78
2022/12/29 08:05:49;;;;;;;299.83;218.40;;;;;;;;;;5082164;28;20074;-77
2022/12/29 08:08:14;;;;;;;217.23;164.57;;;;;;;;;;5080125;28;20061;-76
2022/12/29 08:10:39;;;;;;;234.05;187.68;;;;;;;;;;5081437;28;20040;-77
2022/12/29 08:13:05;;;;;;;213.50;172.15;;;;;;;;;;5080886;28;20028;-77
2022/12/29 08:15:30;;;;;;;224.20;180.68;;;;;;;;;;5079694;28;20031;-76
2022/12/29 08:17:55;;;;;;;205.30;164.90;;;;;;;;;;5080302;28;20114;-77
2022/12/29 08:20:21;;;;;;;216.80;177.27;;;;;;;;;;5078627;28;20431;-78
2022/12/29 08:22:46;;;;;;;191.63;153.63;;;;;;;;;;5078510;28;20020;-77
2022/12/29 08:25:11;;;;;;;185.27;142.52;;;;;;;;;;5079479;28;20178;-77
2022/12/29 08:27:37;;;;;;;204.88;165.90;;;;;;;;;;5083291;28;20098;-77
2022/12/29 08:30:02;;;;;;;173.25;143.38;;;;;;;;;;5079709;28;20128;-77
2022/12/29 08:32:28;;;;;;;157.63;126.70;;;;;;;;;;5079873;28;20024;-78
2022/12/29 08:34:53;;;;;;;144.88;115.93;;;;;;;;;;5082827;28;20747;-77
2022/12/29 08:37:18;;;;;;;149.25;120.45;;;;;;;;;;5079259;28;20153;-77
2022/12/29 08:39:44;;;;;;;198.18;149.20;;;;;;;;;;5081080;28;20088;-77
2022/12/29 08:42:09;;;;;;;194.23;157.65;;;;;;;;;;5082957;28;20023;-79
2022/12/29 08:44:34;;;;;;;197.48;160.98;;;;;;;;;;5079911;28;20711;-78
2022/12/29 08:47:00;;;;;;;178.48;138.63;;;;;;;;;;5081432;28;20114;-78
2022/12/29 08:49:25;;;;;;;201.43;142.65;;;;;;;;;;5080125;28;20024;-78
2022/12/29 08:51:50;;;;;;;139.45;103.38;;;;;;;;;;5081118;28;20405;-77
2022/12/29 08:54:16;;;;;;;140.07;103.30;;;;;;;;;;5063692;28;20028;-77
2022/12/29 08:56:41;;;;;;;85.68;73.47;;;;;;;;;;5078145;28;20027;-77
2022/12/29 08:59:06;;;;;;;122.97;88.78;;;;;;;;;;5082392;28;20134;-77
2022/12/29 09:01:33;;;;;;;207.48;112.78;;;;;;;;;;5079639;28;20411;-77
2022/12/29 09:03:58;;;;;;;186.10;122.97;;;;;;;;;;5081490;28;20419;-77
2022/12/29 09:06:23;;;;;;;127.45;67.50;;;;;;;;;;5080616;28;20033;-75
2022/12/29 09:08:49;;;;;;;65.15;51.75;;;;;;;;;;5078606;28;20020;-75
2022/12/29 09:11:21;;;;;;;86.40;75.90;;;;;;;;;;5078235;28;20026;-76
2022/12/29 09:13:47;;;;;;;64.28;52.55;;;;;;;;;;5082754;28;20031;-76
2022/12/29 09:16:12;;;;;;;65.18;57.75;;;;;;;;;;5083774;28;20020;-76
2022/12/29 09:18:38;;;;;;;67.60;54.50;;;;;;;;;;5085180;28;20038;-75
2022/12/29 09:21:04;;;;;;;79.70;64.38;;;;;;;;;;5083106;28;20100;-75
2022/12/29 09:23:30;;;;;;;74.85;60.20;;;;;;;;;;5083232;28;20023;-75
2022/12/29 09:25:55;;;;;;;76.78;58.47;;;;;;;;;;5068257;28;20104;-75
2022/12/29 09:28:21;;;;;;;97.63;80.97;;;;;;;;;;5095728;28;20019;-77
2022/12/29 09:30:46;;;;;;;133.32;103.20;;;;;;;;;;5095970;28;20039;-75
2022/12/29 09:33:12;;;;;;;114.60;86.32;;;;;;;;;;5078701;28;20046;-75
2022/12/29 09:35:40;;;;;;;115.45;90.53;;;;;;;;;;5092944;28;20032;-75
2022/12/29 09:38:06;;;;;;;114.03;87.50;;;;;;;;;;5091366;28;20078;-75
2022/12/29 09:40:31;;;;;;;111.57;90.65;;;;;;;;;;5083851;28;20746;-75
2022/12/29 09:43:00;;;;;;;117.43;95.80;;;;;;;;;;5097025;28;20108;-76
2022/12/29 09:45:40;;;;;;;122.30;93.32;;;;;;;;;;5092398;28;20031;-75
2022/12/29 09:48:10;;;;;;;98.40;83.30;;;;;;;;;;5086137;28;20043;-77
2022/12/29 09:50:38;;;;;;;95.07;84.00;;;;;;;;;;5082195;28;20309;-76
2022/12/29 09:53:30;;;;;;;112.13;89.22;;;;;;;;;;5080220;28;20016;-75
2022/12/29 09:55:57;;;;;;;106.97;87.10;;;;;;;;;;5085946;28;20043;-75
2022/12/29 09:58:34;;;;;;;113.90;96.93;;;;;;;;;;5098304;28;20052;-75
2022/12/29 10:01:02;;;;;;;119.50;100.93;;;;;;;;;;5092069;28;20031;-75
2022/12/29 10:03:35;;;;;;;124.55;104.63;;;;;;;;;;5095254;28;20050;-75
2022/12/29 10:06:04;;;;;;;135.68;111.90;;;;;;;;;;5092542;28;20036;-75
2022/12/29 10:08:47;;;;;;;118.10;99.63;;;;;;;;;;5093061;28;20036;-74
2022/12/29 10:11:15;;;;;;;136.15;113.75;;;;;;;;;;5092797;28;20024;-76
2022/12/29 10:13:59;;;;;;;151.85;131.18;;;;;;;;;;5093720;28;20028;-76
2022/12/29 10:16:34;;;;;;;149.88;126.97;;;;;;;;;;5094715;28;20023;-75
2022/12/29 10:19:11;;;;;;;127.80;107.18;;;;;;;;;;5093497;28;20419;-75
2022/12/29 10:21:39;;;;;;;124.97;110.28;;;;;;;;;;5095280;28;20071;-75
2022/12/29 10:24:07;;;;;;;129.85;111.55;;;;;;;;;;5095494;28;20040;-75
2022/12/29 10:26:36;;;;;;;199.73;156.43;;;;;;;;;;5095543;28;20286;-76
2022/12/29 10:29:01;;;;;;;228.00;162.27;;;;;;;;;;5096995;28;20024;-75
2022/12/29 10:31:35;;;;;;;131.30;104.05;;;;;;;;;;5093884;28;20255;-76
2022/12/29 10:34:03;;;;;;;267.42;174.32;;;;;;;;;;5092968;28;20039;-76
2022/12/29 10:36:37;;;;;;;229.50;182.23;;;;;;;;;;5094209;28;20062;-75
2022/12/29 10:39:18;;;;;;;352.70;237.02;;;;;;;;;;5094571;28;20029;-76
2022/12/29 10:42:06;;;;;;;198.75;147.15;;;;;;;;;;5094014;28;20032;-77
2022/12/29 10:44:33;;;;;;;315.15;251.70;;;;;;;;;;5079827;28;20397;-77
2022/12/29 10:47:00;;;;;;;231.57;194.57;;;;;;;;;;5096535;28;20034;-76
2022/12/29 10:49:28;;;;;;;251.68;216.98;;;;;;;;;;5093860;28;20028;-77
2022/12/29 10:51:55;;;;;;;101.78;87.75;;;;;;;;;;5094929;28;20015;-76
2022/12/29 10:54:27;;;;;;;48.08;41.83;;;;;;;;;;5095540;28;20569;-77
2022/12/29 10:56:56;;;;;;;17.40;15.40;;;;;;;;;;5092881;28;20031;-76
2022/12/29 10:59:26;;;;;;;27.13;20.98;;;;;;;;;;5093551;28;20044;-76
2022/12/29 11:01:51;;;;;;;23.48;18.02;;;;;;;;;;5095867;28;20027;-77
2022/12/29 11:04:16;;;;;;;24.02;21.27;;;;;;;;;;5093962;28;20031;-78
2022/12/29 11:06:42;;;;;;;19.42;17.35;;;;;;;;;;5095635;28;20039;-76
2022/12/29 11:09:11;;;;;;;19.95;16.75;;;;;;;;;;5096295;28;20366;-77
2022/12/29 11:11:36;;;;;;;16.23;14.52;;;;;;;;;;5089997;28;20031;-75
2022/12/29 11:14:11;;;;;;;24.92;22.58;;;;;;;;;;5095189;28;20046;-75
2022/12/29 11:16:37;;;;;;;16.45;13.32;;;;;;;;;;5092055;28;20076;-75
2022/12/29 11:19:02;;;;;;;22.10;16.05;;;;;;;;;;5097057;28;20028;-76
2022/12/29 11:21:39;;;;;;;23.45;16.40;;;;;;;;;;5095546;28;20026;-76
2022/12/29 11:24:06;;;;;;;47.53;31.42;;;;;;;;;;5093341;28;20040;-76
2022/12/29 11:26:31;;;;;;;16.55;13.82;;;;;;;;;;5090689;28;20367;-76
2022/12/29 11:29:15;;;;;;;421.55;258.13;;;;;;;;;;5094161;28;20016;-77
2022/12/29 11:31:52;;;;;;;29.92;22.80;;;;;;;;;;5092836;28;20062;-75
2022/12/29 11:34:20;;;;;;;22.40;19.83;;;;;;;;;;5090178;28;20032;-76
2022/12/29 11:36:46;;;;;;;22.92;19.98;;;;;;;;;;5094095;28;20038;-75
2022/12/29 11:39:44;;;;;;;25.70;22.08;;;;;;;;;;5092640;28;20015;-76
2022/12/29 11:42:13;;;;;;;22.13;16.33;;;;;;;;;;5051383;28;20034;-75
2022/12/29 11:44:42;;;;;;;10.77;9.65;;;;;;;;;;5092985;28;20601;-75
2022/12/29 11:47:12;;;;;;;15.07;11.88;;;;;;;;;;5092889;28;20065;-75
2022/12/29 11:49:38;;;;;;;12.18;11.07;;;;;;;;;;5093944;28;20054;-76
2022/12/29 11:52:04;;;;;;;15.00;13.48;;;;;;;;;;5094690;28;20063;-76
2022/12/29 11:54:31;;;;;;;13.77;12.32;;;;;;;;;;5093806;28;20031;-76
2022/12/29 11:56:57;;;;;;;17.60;13.27;;;;;;;;;;5094240;28;20080;-76
2022/12/29 11:59:38;;;;;;;14.95;12.73;;;;;;;;;;5094025;28;20059;-76
2022/12/29 12:02:21;;;;;;;19.35;14.95;;;;;;;;;;5093660;28;20556;-74
2022/12/29 12:04:47;;;;;;;17.30;12.70;;;;;;;;;;5092631;28;20323;-75
2022/12/29 12:07:12;;;;;;;15.95;14.32;;;;;;;;;;5091293;28;20032;-75
2022/12/29 12:09:50;;;;;;;14.65;12.15;;;;;;;;;;5093077;28;20031;-76
2022/12/29 12:12:24;;;;;;;25.50;20.00;;;;;;;;;;5091781;28;20114;-76
2022/12/29 12:14:54;;;;;;;28.85;25.17;;;;;;;;;;5091323;28;20035;-76
2022/12/29 12:17:38;;;;;;;35.15;27.17;;;;;;;;;;5092900;28;20054;-77
2022/12/29 12:20:03;;;;;;;39.40;30.15;;;;;;;;;;5092314;28;20609;-75
2022/12/29 12:22:28;;;;;;;37.67;29.13;;;;;;;;;;5091614;28;20119;-75
2022/12/29 12:24:56;;;;;;;19.37;16.33;;;;;;;;;;5094675;28;20046;-76
2022/12/29 12:27:25;;;;;;;22.90;20.52;;;;;;;;;;5095260;28;20312;-76
2022/12/29 12:29:56;;;;;;;21.95;17.15;;;;;;;;;;5094906;28;20133;-77
2022/12/29 12:32:42;;;;;;;21.75;19.42;;;;;;;;;;5093025;28;20089;-76
2022/12/29 12:35:16;;;;;;;33.55;26.20;;;;;;;;;;5092985;28;20085;-76
2022/12/29 12:38:00;;;;;;;16.02;13.45;;;;;;;;;;5091874;28;20103;-76
2022/12/29 12:40:34;;;;;;;16.63;14.75;;;;;;;;;;5091025;28;20465;-76
2022/12/29 12:43:11;;;;;;;26.58;19.13;;;;;;;;;;5093216;28;20042;-76
2022/12/29 12:45:47;;;;;;;28.42;19.10;;;;;;;;;;5094048;28;20027;-76
2022/12/29 12:48:13;;;;;;;26.17;19.25;;;;;;;;;;5092855;28;20023;-76
2022/12/29 12:50:46;;;;;;;26.30;17.17;;;;;;;;;;5095845;28;20024;-75
2022/12/29 12:53:19;;;;;;;23.20;18.10;;;;;;;;;;5096348;28;20038;-75
2022/12/29 12:56:17;;;;;;;21.92;18.48;;;;;;;;;;5097298;28;20023;-75
2022/12/29 12:58:42;;;;;;;15.63;13.13;;;;;;;;;;5057911;28;20068;-78
2022/12/29 13:01:10;;;;;;;20.87;15.33;;;;;;;;;;5100321;28;20020;-75
2022/12/29 13:03:35;;;;;;;20.33;16.42;;;;;;;;;;5093244;28;20373;-75
2022/12/29 13:06:16;;;;;;;34.27;23.63;;;;;;;;;;5097391;28;20133;-77
2022/12/29 13:09:00;;;;;;;34.83;24.35;;;;;;;;;;5097461;28;20367;-76
2022/12/29 13:11:25;;;;;;;38.10;26.70;;;;;;;;;;5096988;28;20023;-76
2022/12/29 13:13:50;;;;;;;17.65;15.00;;;;;;;;;;5098634;28;20341;-79
2022/12/29 13:16:15;;;;;;;18.08;13.38;;;;;;;;;;5095805;28;20119;-75
2022/12/29 13:18:44;;;;;;;17.63;15.77;;;;;;;;;;5098728;28;20038;-76
2022/12/29 13:21:20;;;;;;;20.00;14.63;;;;;;;;;;5095871;28;20321;-75
2022/12/29 13:23:57;;;;;;;33.67;22.77;;;;;;;;;;5096526;28;20427;-78
2022/12/29 13:26:29;;;;;;;26.38;18.73;;;;;;;;;;5095170;28;20032;-79
2022/12/29 13:28:57;;;;;;;25.77;17.98;;;;;;;;;;5095435;28;20019;-74
2022/12/29 13:31:35;;;;;;;21.70;15.23;;;;;;;;;;5094801;28;20047;-75
2022/12/29 13:34:10;;;;;;;19.73;15.45;;;;;;;;;;5096880;28;20027;-75
2022/12/29 13:36:42;;;;;;;71.07;50.00;;;;;;;;;;5095420;28;20431;-76
2022/12/29 13:39:11;;;;;;;43.63;34.00;;;;;;;;;;5091524;28;20063;-77
2022/12/29 13:41:39;;;;;;;33.73;30.17;;;;;;;;;;5094375;28;20462;-76
2022/12/29 13:44:05;;;;;;;40.75;36.40;;;;;;;;;;5095369;28;20032;-76
2022/12/29 13:46:33;;;;;;;33.45;28.48;;;;;;;;;;5092608;28;20055;-75
2022/12/29 13:49:02;;;;;;;39.65;31.90;;;;;;;;;;5094127;28;20031;-76
2022/12/29 13:51:28;;;;;;;49.65;38.80;;;;;;;;;;5068102;28;20027;-76
2022/12/29 13:54:11;;;;;;;23.65;20.08;;;;;;;;;;5076868;28;20032;-77
2022/12/29 13:56:48;;;;;;;25.90;21.20;;;;;;;;;;5078191;28;20024;-75
2022/12/29 13:59:16;;;;;;;21.42;17.38;;;;;;;;;;5083006;28;20063;-76
2022/12/29 14:01:51;;;;;;;25.23;20.60;;;;;;;;;;5081502;28;20036;-76
2022/12/29 14:04:23;;;;;;;25.77;19.77;;;;;;;;;;5079112;28;20067;-76
2022/12/29 14:07:18;;;;;;;45.72;32.70;;;;;;;;;;5091510;28;20056;-75
2022/12/29 14:09:46;;;;;;;67.90;49.70;;;;;;;;;;4967385;28;20119;-76
2022/12/29 14:12:32;;;;;;;52.83;41.83;;;;;;;;;;4979883;28;20058;-76
2022/12/29 14:15:15;;;;;;;74.70;42.63;;;;;;;;;;4997687;28;20053;-77
2022/12/29 14:17:41;;;;;;;83.75;51.25;;;;;;;;;;4993324;28;20037;-78
2022/12/29 14:20:15;;;;;;;94.05;57.67;;;;;;;;;;5000107;28;20041;-79
2022/12/29 14:22:55;;;;;;;105.43;65.70;;;;;;;;;;5001267;28;20038;-78
2022/12/29 14:25:20;;;;;;;;;;;;;;;;;;4999191;28;20559;-77
2022/12/29 14:27:54;;;;;;;128.38;91.22;;;;;;;;;;4999495;28;19956;-78
2022/12/29 14:30:38;;;;;;;94.93;76.43;;;;;;;;;;4996426;28;20040;-77
2022/12/29 14:33:12;;;;;;;125.00;105.65;;;;;;;;;;4998528;28;20045;-77
2022/12/29 14:35:41;;;;;;;81.88;69.68;;;;;;;;;;4998069;28;20121;-75
2022/12/29 14:38:14;;;;;;;112.80;87.88;;;;;;;;;;4999726;28;20038;-76
2022/12/29 14:40:39;;;;;;;93.47;66.20;;;;;;;;;;4998330;28;20096;-76
2022/12/29 14:43:11;;;;;;;83.43;68.60;;;;;;;;;;4987884;28;20026;-75
2022/12/29 14:45:40;;;;;;;89.40;73.95;;;;;;;;;;5023694;28;20100;-75
2022/12/29 14:48:24;;;;;;;167.02;135.63;;;;;;;;;;5093802;28;20023;-75
2022/12/29 14:50:49;;;;;;;139.68;116.60;;;;;;;;;;5089522;28;20042;-76
2022/12/29 14:53:33;;;;;;;145.10;113.95;;;;;;;;;;5070273;28;20659;-76